sensor_id;sensor_type;location;lat;lon;timestamp;P1;durP1;ratioP1;P2;durP2;ratioP2
31686;SDS011;18285;51.330;4.946;2024-03-02T00:21:18;1.75;;;0.70;;
31686;SDS011;18285;51.330;4.946;2024-03-02T00:45:32;3.08;;;0.90;;
31686;SDS011;18285;51.330;4.946;2024-03-02T01:09:43;1.63;;;0.70;;
31686;SDS011;18285;51.330;4.946;2024-03-02T01:33:55;1.27;;;0.60;;
31686;SDS011;18285;51.330;4.946;2024-03-02T08:27:21;4.88;;;0.80;;
31686;SDS011;18285;51.330;4.946;2024-03-02T08:51:32;1.30;;;0.60;;
31686;SDS011;18285;51.330;4.946;2024-03-02T09:15:43;9.20;;;1.38;;
31686;SDS011;18285;51.330;4.946;2024-03-02T09:39:54;8.77;;;1.25;;
31686;SDS011;18285;51.330;4.946;2024-03-02T10:04:05;14.97;;;2.77;;
31686;SDS011;18285;51.330;4.946;2024-03-02T10:28:15;7.73;;;1.97;;
31686;SDS011;18285;51.330;4.946;2024-03-02T10:52:26;8.70;;;1.30;;
31686;SDS011;18285;51.330;4.946;2024-03-02T11:16:37;5.73;;;1.37;;
31686;SDS011;18285;51.330;4.946;2024-03-02T11:40:51;4.18;;;1.05;;
31686;SDS011;18285;51.330;4.946;2024-03-02T12:05:02;2.83;;;0.93;;
31686;SDS011;18285;51.330;4.946;2024-03-02T12:29:14;4.78;;;1.15;;
31686;SDS011;18285;51.330;4.946;2024-03-02T12:53:25;5.60;;;2.00;;
31686;SDS011;18285;51.330;4.946;2024-03-02T13:17:36;6.43;;;1.43;;
31686;SDS011;18285;51.330;4.946;2024-03-02T13:41:46;2.80;;;1.00;;
31686;SDS011;18285;51.330;4.946;2024-03-02T14:06:02;5.32;;;1.30;;
31686;SDS011;18285;51.330;4.946;2024-03-02T14:30:13;7.60;;;2.30;;
31686;SDS011;18285;51.330;4.946;2024-03-02T14:54:24;6.13;;;1.53;;
31686;SDS011;18285;51.330;4.946;2024-03-02T15:18:35;4.67;;;1.80;;
31686;SDS011;18285;51.330;4.946;2024-03-02T15:42:45;7.03;;;2.03;;
31686;SDS011;18285;51.330;4.946;2024-03-02T16:06:56;4.67;;;1.90;;
31686;SDS011;18285;51.330;4.946;2024-03-02T16:31:07;3.23;;;1.33;;
31686;SDS011;18285;51.330;4.946;2024-03-02T16:55:22;3.50;;;1.40;;
31686;SDS011;18285;51.330;4.946;2024-03-02T17:19:33;10.70;;;1.85;;
31686;SDS011;18285;51.330;4.946;2024-03-02T17:43:43;21.20;;;5.60;;
31686;SDS011;18285;51.330;4.946;2024-03-02T18:07:54;11.43;;;4.00;;
31686;SDS011;18285;51.330;4.946;2024-03-02T18:32:05;12.27;;;3.90;;
31686;SDS011;18285;51.330;4.946;2024-03-02T18:56:16;15.75;;;3.20;;
31686;SDS011;18285;51.330;4.946;2024-03-02T19:20:30;10.03;;;3.30;;
31686;SDS011;18285;51.330;4.946;2024-03-02T19:44:41;12.05;;;4.90;;
31686;SDS011;18285;51.330;4.946;2024-03-02T20:08:52;7.18;;;3.42;;
31686;SDS011;18285;51.330;4.946;2024-03-02T20:33:03;8.83;;;3.33;;
31686;SDS011;18285;51.330;4.946;2024-03-02T20:57:14;11.27;;;4.50;;
31686;SDS011;18285;51.330;4.946;2024-03-02T21:21:25;11.33;;;3.67;;
31686;SDS011;18285;51.330;4.946;2024-03-02T21:45:35;8.93;;;3.40;;
31686;SDS011;18285;51.330;4.946;2024-03-02T22:09:46;6.83;;;2.70;;
31686;SDS011;18285;51.330;4.946;2024-03-02T22:33:57;8.10;;;3.78;;
31686;SDS011;18285;51.330;4.946;2024-03-02T23:22:18;4.17;;;2.00;;
31686;SDS011;18285;51.330;4.946;2024-03-02T23:46:31;3.25;;;1.83;;
